createdAt,value
2019-04-28T00:00:52.965Z,1009.15
2019-04-28T00:01:52.505Z,1009.18
2019-04-28T00:02:52.490Z,1009.18
2019-04-28T00:03:52.495Z,1009.17
2019-04-28T00:04:52.483Z,1009.19
2019-04-28T00:05:52.478Z,1009.22
2019-04-28T00:06:53.306Z,1009.17
2019-04-28T00:07:52.883Z,1009.19
2019-04-28T00:08:52.450Z,1009.17
2019-04-28T00:09:52.451Z,1009.11
2019-04-28T00:10:53.351Z,1009.10
2019-04-28T00:11:52.430Z,1009.08
2019-04-28T00:12:52.425Z,1009.09
2019-04-28T00:13:53.624Z,1009.10
2019-04-28T00:14:52.410Z,1009.09
2019-04-28T00:15:52.411Z,1009.12
2019-04-28T00:16:52.404Z,1009.13
2019-04-28T00:17:52.397Z,1009.15
2019-04-28T00:18:52.389Z,1009.11
2019-04-28T00:19:52.384Z,1009.15
2019-04-28T00:20:52.376Z,1009.16
2019-04-28T00:21:52.374Z,1009.16
2019-04-28T00:22:52.360Z,1009.16
2019-04-28T00:23:52.361Z,1009.12
2019-04-28T00:24:52.355Z,1009.16
2019-04-28T00:25:52.346Z,1009.18
2019-04-28T00:26:52.332Z,1009.18
2019-04-28T00:27:52.331Z,1009.27
2019-04-28T00:28:52.326Z,1009.21
2019-04-28T00:29:52.323Z,1009.19
2019-04-28T00:30:52.312Z,1009.22
2019-04-28T00:31:52.297Z,1009.23
2019-04-28T00:32:52.297Z,1009.29
2019-04-28T00:33:52.291Z,1009.25
2019-04-28T00:34:52.285Z,1009.31
2019-04-28T00:35:52.274Z,1009.26
2019-04-28T00:36:52.269Z,1009.32
2019-04-28T00:37:52.268Z,1009.28
2019-04-28T00:38:52.254Z,1009.27
2019-04-28T00:39:52.257Z,1009.24
2019-04-28T00:40:52.805Z,1009.24
2019-04-28T00:41:52.240Z,1009.33
2019-04-28T00:42:52.237Z,1009.30
2019-04-28T00:43:52.225Z,1009.28
2019-04-28T00:44:52.220Z,1009.30
2019-04-28T00:45:52.221Z,1009.34
2019-04-28T00:46:52.206Z,1009.34
2019-04-28T00:47:52.194Z,1009.35
2019-04-28T00:48:52.192Z,1009.33
2019-04-28T00:49:52.196Z,1009.42
2019-04-28T00:50:52.178Z,1009.33
2019-04-28T00:51:52.174Z,1009.35
2019-04-28T00:52:52.170Z,1009.34
2019-04-28T00:53:52.168Z,1009.34
2019-04-28T00:54:52.748Z,1009.33
2019-04-28T00:55:54.056Z,1009.32
2019-04-28T00:56:52.135Z,1009.33
2019-04-28T00:57:52.136Z,1009.34
2019-04-28T00:58:54.130Z,1009.35
2019-04-28T00:59:58.136Z,1009.38
2019-04-28T01:00:52.118Z,1009.38
2019-04-28T01:01:52.117Z,1009.44
2019-04-28T01:02:52.109Z,1009.38
2019-04-28T01:03:52.107Z,1009.37
2019-04-28T01:04:52.094Z,1009.36
2019-04-28T01:05:52.087Z,1009.40
2019-04-28T01:06:52.213Z,1009.42
2019-04-28T01:07:52.067Z,1009.39
2019-04-28T01:08:52.061Z,1009.42
2019-04-28T01:09:52.058Z,1009.42
2019-04-28T01:10:52.048Z,1009.42
2019-04-28T01:11:53.399Z,1009.39
2019-04-28T01:12:52.037Z,1009.37
2019-04-28T01:13:52.030Z,1009.43
2019-04-28T01:14:54.863Z,1009.41
2019-04-28T01:15:52.031Z,1009.43
2019-04-28T01:16:52.014Z,1009.43
2019-04-28T01:17:52.008Z,1009.42
2019-04-28T01:18:52.001Z,1009.44
2019-04-28T01:19:51.993Z,1009.48
2019-04-28T01:20:51.987Z,1009.50
2019-04-28T01:21:51.974Z,1009.52
2019-04-28T01:22:51.970Z,1009.52
2019-04-28T01:23:51.969Z,1009.55
2019-04-28T01:24:51.963Z,1009.52
2019-04-28T01:25:51.952Z,1009.54
2019-04-28T01:26:51.946Z,1009.56
2019-04-28T01:27:51.933Z,1009.55
2019-04-28T01:28:51.928Z,1009.55
2019-04-28T01:30:05.171Z,1009.62
2019-04-28T01:30:51.928Z,1009.59
2019-04-28T01:31:51.908Z,1009.61
2019-04-28T01:32:51.902Z,1009.64
2019-04-28T01:33:51.897Z,1009.66
2019-04-28T01:34:51.896Z,1009.65
2019-04-28T01:35:51.888Z,1009.69
2019-04-28T01:36:52.118Z,1009.66
2019-04-28T01:37:51.875Z,1009.67
2019-04-28T01:38:51.866Z,1009.65
2019-04-28T01:39:51.855Z,1009.66
2019-04-28T01:40:51.854Z,1009.67
2019-04-28T01:41:51.844Z,1009.69
2019-04-28T01:42:51.846Z,1009.65
2019-04-28T01:43:52.317Z,1009.67
2019-04-28T01:44:51.835Z,1009.68
2019-04-28T01:45:51.849Z,1009.68
2019-04-28T01:46:51.822Z,1009.75
2019-04-28T01:47:51.808Z,1009.72
2019-04-28T01:48:51.807Z,1009.75
2019-04-28T01:49:51.804Z,1009.73
2019-04-28T01:50:51.796Z,1009.74
2019-04-28T01:51:51.775Z,1009.76
2019-04-28T01:52:51.767Z,1009.75
2019-04-28T01:53:51.770Z,1009.73
2019-04-28T01:54:51.755Z,1009.76
2019-04-28T01:55:51.762Z,1009.79
2019-04-28T01:56:51.754Z,1009.77
2019-04-28T01:57:51.746Z,1009.78
2019-04-28T01:58:51.811Z,1009.79
2019-04-28T01:59:51.729Z,1009.82
2019-04-28T02:00:51.715Z,1009.80
2019-04-28T02:01:51.716Z,1009.80
2019-04-28T02:02:51.707Z,1009.84
2019-04-28T02:03:51.704Z,1009.83
2019-04-28T02:04:51.713Z,1009.82
2019-04-28T02:05:51.690Z,1009.78
2019-04-28T02:06:51.680Z,1009.78
2019-04-28T02:07:51.676Z,1009.84
2019-04-28T02:08:51.669Z,1009.84
2019-04-28T02:09:51.666Z,1009.82
2019-04-28T02:10:51.657Z,1009.82
2019-04-28T02:11:51.645Z,1009.83
2019-04-28T02:12:51.662Z,1009.86
2019-04-28T02:13:51.634Z,1009.86
2019-04-28T02:14:52.145Z,1009.87
2019-04-28T02:15:51.622Z,1009.91
2019-04-28T02:16:51.620Z,1009.92
2019-04-28T02:17:51.720Z,1009.94
2019-04-28T02:18:51.602Z,1009.93
2019-04-28T02:19:51.689Z,1009.93
2019-04-28T02:20:51.604Z,1009.97
2019-04-28T02:21:51.587Z,1010.01
2019-04-28T02:22:51.574Z,1009.98
2019-04-28T02:23:51.568Z,1010.00
2019-04-28T02:24:51.556Z,1010.03
2019-04-28T02:25:51.554Z,1009.98
2019-04-28T02:26:52.736Z,1009.98
2019-04-28T02:27:51.550Z,1009.95
2019-04-28T02:28:51.538Z,1009.99
2019-04-28T02:29:51.538Z,1010.01
2019-04-28T02:30:53.867Z,1010.02
2019-04-28T02:31:51.513Z,1010.03
2019-04-28T02:32:51.977Z,1010.04
2019-04-28T02:33:53.900Z,1010.05
2019-04-28T02:34:51.504Z,1010.08
2019-04-28T02:35:51.504Z,1010.09
2019-04-28T02:36:53.926Z,1010.11
2019-04-28T02:37:51.470Z,1010.12
2019-04-28T02:38:51.594Z,1010.10
2019-04-28T02:39:51.462Z,1010.14
2019-04-28T02:40:51.462Z,1010.07
2019-04-28T02:41:51.450Z,1010.05
2019-04-28T02:42:52.324Z,1010.05
2019-04-28T02:43:51.440Z,1010.00
2019-04-28T02:44:51.452Z,1010.03
2019-04-28T02:45:53.472Z,1010.04
2019-04-28T02:46:51.417Z,1010.02
2019-04-28T02:47:52.249Z,1010.03
2019-04-28T02:48:54.119Z,1010.03
2019-04-28T02:49:51.393Z,1010.07
2019-04-28T02:50:51.388Z,1010.08
2019-04-28T02:51:51.392Z,1010.10
2019-04-28T02:52:52.035Z,1010.15
2019-04-28T02:53:51.488Z,1010.15
2019-04-28T02:54:51.370Z,1010.18
2019-04-28T02:55:51.584Z,1010.23
2019-04-28T02:56:51.344Z,1010.20
2019-04-28T02:57:51.822Z,1010.23
2019-04-28T02:58:51.350Z,1010.18
2019-04-28T02:59:51.334Z,1010.27
2019-04-28T03:01:02.830Z,1010.24
2019-04-28T03:01:51.320Z,1010.26
2019-04-28T03:02:51.617Z,1010.31
2019-04-28T03:03:51.303Z,1010.37
2019-04-28T03:04:51.312Z,1010.40
2019-04-28T03:05:51.502Z,1010.34
2019-04-28T03:06:51.930Z,1010.38
2019-04-28T03:07:51.794Z,1010.37
2019-04-28T03:08:51.265Z,1010.35
2019-04-28T03:09:52.258Z,1010.40
2019-04-28T03:10:51.252Z,1010.37
2019-04-28T03:11:51.330Z,1010.41
2019-04-28T03:12:51.889Z,1010.38
2019-04-28T03:13:51.322Z,1010.42
2019-04-28T03:14:51.232Z,1010.43
2019-04-28T03:15:51.809Z,1010.45
2019-04-28T03:16:51.217Z,1010.47
2019-04-28T03:17:53.137Z,1010.48
2019-04-28T03:18:51.587Z,1010.45
2019-04-28T03:19:51.767Z,1010.44
2019-04-28T03:20:51.763Z,1010.43
2019-04-28T03:21:51.277Z,1010.46
2019-04-28T03:22:51.385Z,1010.48
2019-04-28T03:23:51.862Z,1010.43
2019-04-28T03:24:51.261Z,1010.45
2019-04-28T03:25:51.156Z,1010.45
2019-04-28T03:26:51.149Z,1010.44
2019-04-28T03:27:51.138Z,1010.46
2019-04-28T03:28:51.523Z,1010.44
2019-04-28T03:29:52.563Z,1010.49
2019-04-28T03:30:53.910Z,1010.44
2019-04-28T03:32:15.934Z,1010.47
2019-04-28T03:32:59.066Z,1010.45
2019-04-28T03:33:55.382Z,1010.47
2019-04-28T03:34:53.854Z,1010.43
2019-04-28T03:35:53.597Z,1010.46
2019-04-28T03:36:51.779Z,1010.49
2019-04-28T03:37:51.352Z,1010.47
2019-04-28T03:38:53.148Z,1010.46
2019-04-28T03:39:51.054Z,1010.49
2019-04-28T03:40:51.396Z,1010.51
2019-04-28T03:41:51.044Z,1010.49
2019-04-28T03:42:51.405Z,1010.51
2019-04-28T03:43:51.513Z,1010.51
2019-04-28T03:44:51.416Z,1010.51
2019-04-28T03:45:51.023Z,1010.52
2019-04-28T03:46:51.336Z,1010.56
2019-04-28T03:47:51.104Z,1010.54
2019-04-28T03:48:51.208Z,1010.56
2019-04-28T03:49:51.029Z,1010.61
2019-04-28T03:50:51.462Z,1010.63
2019-04-28T03:51:50.989Z,1010.60
2019-04-28T03:52:51.311Z,1010.59
2019-04-28T03:53:50.964Z,1010.61
2019-04-28T03:54:51.310Z,1010.68
2019-04-28T03:55:51.458Z,1010.67
2019-04-28T03:56:53.710Z,1010.62
2019-04-28T03:57:51.174Z,1010.61
2019-04-28T03:58:50.945Z,1010.64
2019-04-28T03:59:51.441Z,1010.62
2019-04-28T04:00:50.966Z,1010.65
2019-04-28T04:01:56.555Z,1010.64
2019-04-28T04:02:50.900Z,1010.64
2019-04-28T04:03:51.780Z,1010.68
2019-04-28T04:04:52.690Z,1010.67
2019-04-28T04:05:51.169Z,1010.66
2019-04-28T04:06:51.000Z,1010.67
2019-04-28T04:07:50.896Z,1010.66
2019-04-28T04:08:50.861Z,1010.71
2019-04-28T04:09:51.419Z,1010.71
2019-04-28T04:10:50.857Z,1010.71
2019-04-28T04:11:50.929Z,1010.71
2019-04-28T04:12:51.137Z,1010.72
2019-04-28T04:13:51.450Z,1010.73
2019-04-28T04:14:50.896Z,1010.72
2019-04-28T04:15:53.996Z,1010.74
2019-04-28T04:16:50.812Z,1010.75
2019-04-28T04:17:51.019Z,1010.75
2019-04-28T04:18:53.626Z,1010.73
2019-04-28T04:19:50.788Z,1010.73
2019-04-28T04:20:51.299Z,1010.78
2019-04-28T04:21:52.791Z,1010.75
2019-04-28T04:22:51.303Z,1010.80
2019-04-28T04:23:51.103Z,1010.80
2019-04-28T04:24:52.456Z,1010.83
2019-04-28T04:25:51.348Z,1010.85
2019-04-28T04:26:50.740Z,1010.83
2019-04-28T04:27:50.737Z,1010.90
2019-04-28T04:28:51.472Z,1010.91
2019-04-28T04:29:51.009Z,1010.94
2019-04-28T04:30:51.020Z,1010.93
2019-04-28T04:31:51.280Z,1010.96
2019-04-28T04:32:50.822Z,1010.94
2019-04-28T04:33:50.904Z,1010.95
2019-04-28T04:34:50.728Z,1010.97
2019-04-28T04:35:51.751Z,1010.98
2019-04-28T04:36:51.021Z,1011.02
2019-04-28T04:37:50.666Z,1011.03
2019-04-28T04:38:51.453Z,1011.07
2019-04-28T04:39:51.393Z,1011.10
2019-04-28T04:40:51.262Z,1011.10
2019-04-28T04:41:50.650Z,1011.09
2019-04-28T04:42:50.633Z,1011.09
2019-04-28T04:43:51.522Z,1011.09
2019-04-28T04:44:50.613Z,1011.08
2019-04-28T04:45:50.625Z,1011.11
2019-04-28T04:46:50.993Z,1011.14
2019-04-28T04:47:50.605Z,1011.09
2019-04-28T04:48:50.943Z,1011.13
2019-04-28T04:49:50.621Z,1011.10
2019-04-28T04:50:51.141Z,1011.10
2019-04-28T04:51:50.963Z,1011.05
2019-04-28T04:52:50.559Z,1011.03
2019-04-28T04:53:51.211Z,1011.05
2019-04-28T04:54:51.150Z,1011.06
2019-04-28T04:55:52.610Z,1011.06
2019-04-28T04:56:50.536Z,1011.11
2019-04-28T04:57:50.776Z,1011.14
2019-04-28T04:58:50.831Z,1011.18
2019-04-28T04:59:50.521Z,1011.18
2019-04-28T05:00:51.027Z,1011.21
2019-04-28T05:01:50.509Z,1011.22
2019-04-28T05:02:52.970Z,1011.25
2019-04-28T05:03:50.482Z,1011.28
2019-04-28T05:04:50.678Z,1011.31
2019-04-28T05:05:50.471Z,1011.30
2019-04-28T05:06:50.464Z,1011.33
2019-04-28T05:07:50.792Z,1011.34
2019-04-28T05:08:50.452Z,1011.32
2019-04-28T05:09:50.461Z,1011.34
2019-04-28T05:10:50.521Z,1011.39
2019-04-28T05:11:50.436Z,1011.38
2019-04-28T05:12:51.783Z,1011.37
2019-04-28T05:13:50.419Z,1011.37
2019-04-28T05:14:50.416Z,1011.43
2019-04-28T05:15:50.761Z,1011.43
2019-04-28T05:16:50.403Z,1011.46
2019-04-28T05:17:50.385Z,1011.46
2019-04-28T05:18:50.381Z,1011.47
2019-04-28T05:19:50.378Z,1011.51
2019-04-28T05:20:50.500Z,1011.55
2019-04-28T05:21:50.365Z,1011.61
2019-04-28T05:22:50.631Z,1011.62
2019-04-28T05:23:51.062Z,1011.64
2019-04-28T05:24:51.138Z,1011.69
2019-04-28T05:25:50.336Z,1011.70
2019-04-28T05:26:51.624Z,1011.75
2019-04-28T05:27:50.324Z,1011.77
2019-04-28T05:28:53.252Z,1011.80
2019-04-28T05:29:51.319Z,1011.83
2019-04-28T05:30:50.339Z,1011.85
2019-04-28T05:31:50.515Z,1011.86
2019-04-28T05:32:56.192Z,1011.84
2019-04-28T05:33:50.291Z,1011.84
2019-04-28T05:34:52.751Z,1011.87
2019-04-28T05:35:50.263Z,1011.91
2019-04-28T05:36:50.592Z,1011.95
2019-04-28T05:37:50.257Z,1012.00
2019-04-28T05:38:50.245Z,1012.02
2019-04-28T05:39:52.574Z,1011.98
2019-04-28T05:40:50.239Z,1012.06
2019-04-28T05:41:50.562Z,1012.05
2019-04-28T05:42:50.222Z,1012.08
2019-04-28T05:43:50.502Z,1012.05
2019-04-28T05:44:50.201Z,1012.09
2019-04-28T05:45:50.205Z,1012.06
2019-04-28T05:46:50.795Z,1012.11
2019-04-28T05:47:51.953Z,1012.10
2019-04-28T05:48:51.314Z,1012.05
2019-04-28T05:49:51.410Z,1012.07
2019-04-28T05:50:50.168Z,1012.03
2019-04-28T05:51:50.517Z,1012.04
2019-04-28T05:52:50.253Z,1012.04
2019-04-28T05:53:52.266Z,1012.12
2019-04-28T05:54:50.144Z,1012.08
2019-04-28T05:55:50.278Z,1012.11
2019-04-28T05:56:50.132Z,1012.06
2019-04-28T05:57:53.005Z,1012.11
2019-04-28T05:58:50.525Z,1012.10
2019-04-28T05:59:50.666Z,1012.08
2019-04-28T06:00:50.112Z,1012.03
2019-04-28T06:01:50.614Z,1012.05
2019-04-28T06:02:56.410Z,1012.01
2019-04-28T06:03:50.088Z,1012.02
2019-04-28T06:04:50.078Z,1012.03
2019-04-28T06:05:50.068Z,1011.99
2019-04-28T06:06:50.061Z,1011.99
2019-04-28T06:07:50.051Z,1012.03
2019-04-28T06:08:51.025Z,1011.98
2019-04-28T06:09:50.173Z,1011.95
2019-04-28T06:10:50.034Z,1011.96
2019-04-28T06:11:50.037Z,1012.01
2019-04-28T06:12:50.030Z,1011.99
2019-04-28T06:13:50.091Z,1012.01
2019-04-28T06:14:50.288Z,1012.00
2019-04-28T06:15:49.994Z,1012.03
2019-04-28T06:16:50.669Z,1012.01
2019-04-28T06:17:49.988Z,1012.02
2019-04-28T06:18:50.095Z,1011.99
2019-04-28T06:19:50.531Z,1012.05
2019-04-28T06:20:49.965Z,1012.02
2019-04-28T06:21:49.960Z,1012.00
2019-04-28T06:22:49.951Z,1012.01
2019-04-28T06:23:49.947Z,1011.98
2019-04-28T06:24:49.941Z,1011.98
2019-04-28T06:25:49.935Z,1012.06
2019-04-28T06:26:49.932Z,1012.02
2019-04-28T06:27:49.919Z,1012.06
2019-04-28T06:28:49.911Z,1012.05
2019-04-28T06:29:49.919Z,1012.06
2019-04-28T06:30:49.895Z,1012.09
2019-04-28T06:31:49.900Z,1012.08
2019-04-28T06:32:49.892Z,1012.05
2019-04-28T06:33:49.884Z,1012.09
2019-04-28T06:34:49.875Z,1012.13
2019-04-28T06:35:49.933Z,1012.10
2019-04-28T06:36:49.925Z,1012.12
2019-04-28T06:37:49.866Z,1012.12
2019-04-28T06:38:49.854Z,1012.14
2019-04-28T06:39:49.837Z,1012.14
2019-04-28T06:40:49.832Z,1012.14
2019-04-28T06:41:49.832Z,1012.15
2019-04-28T06:42:49.827Z,1012.18
2019-04-28T06:43:49.816Z,1012.14
2019-04-28T06:44:49.844Z,1012.16
2019-04-28T06:45:49.817Z,1012.22
2019-04-28T06:46:49.799Z,1012.15
2019-04-28T06:47:49.786Z,1012.17
2019-04-28T06:48:49.781Z,1012.15
2019-04-28T06:49:49.783Z,1012.26
2019-04-28T06:50:49.776Z,1012.20
2019-04-28T06:51:49.761Z,1012.26
2019-04-28T06:52:49.765Z,1012.27
2019-04-28T06:53:49.747Z,1012.25
2019-04-28T06:54:49.739Z,1012.23
2019-04-28T06:55:49.739Z,1012.27
2019-04-28T06:56:49.739Z,1012.29
2019-04-28T06:57:49.728Z,1012.28
2019-04-28T06:58:58.981Z,1012.31
2019-04-28T06:59:49.713Z,1012.24
2019-04-28T07:00:49.708Z,1012.28
2019-04-28T07:01:49.696Z,1012.32
2019-04-28T07:02:49.691Z,1012.30
2019-04-28T07:03:49.690Z,1012.29
2019-04-28T07:05:01.251Z,1012.30
2019-04-28T07:05:49.668Z,1012.30
2019-04-28T07:06:49.665Z,1012.32
2019-04-28T07:07:49.668Z,1012.32
2019-04-28T07:08:49.657Z,1012.33
2019-04-28T07:09:49.648Z,1012.31
2019-04-28T07:10:49.641Z,1012.35
2019-04-28T07:11:49.635Z,1012.34
2019-04-28T07:12:49.631Z,1012.35
2019-04-28T07:13:49.617Z,1012.35
2019-04-28T07:14:49.620Z,1012.39
2019-04-28T07:15:49.616Z,1012.41
2019-04-28T07:16:49.607Z,1012.41
2019-04-28T07:17:49.610Z,1012.40
2019-04-28T07:18:49.726Z,1012.41
2019-04-28T07:19:49.579Z,1012.43
2019-04-28T07:20:49.580Z,1012.46
2019-04-28T07:21:49.572Z,1012.41
2019-04-28T07:22:49.571Z,1012.46
2019-04-28T07:23:49.551Z,1012.46
2019-04-28T07:24:49.547Z,1012.47
2019-04-28T07:25:49.543Z,1012.46
2019-04-28T07:26:49.533Z,1012.52
2019-04-28T07:27:49.535Z,1012.50
2019-04-28T07:28:49.539Z,1012.54
2019-04-28T07:29:49.532Z,1012.51
2019-04-28T07:30:49.584Z,1012.52
2019-04-28T07:31:49.537Z,1012.55
2019-04-28T07:32:49.506Z,1012.52
2019-04-28T07:33:49.489Z,1012.54
2019-04-28T07:34:49.498Z,1012.57
2019-04-28T07:35:49.531Z,1012.58
2019-04-28T07:36:49.490Z,1012.56
2019-04-28T07:37:49.480Z,1012.61
2019-04-28T07:38:49.459Z,1012.61
2019-04-28T07:39:49.461Z,1012.60
2019-04-28T07:40:49.449Z,1012.58
2019-04-28T07:41:49.441Z,1012.62
2019-04-28T07:42:49.438Z,1012.60
2019-04-28T07:43:49.427Z,1012.59
2019-04-28T07:44:49.422Z,1012.59
2019-04-28T07:45:49.412Z,1012.63
2019-04-28T07:46:49.405Z,1012.65
2019-04-28T07:47:49.403Z,1012.66
2019-04-28T07:48:52.238Z,1012.71
2019-04-28T07:49:49.402Z,1012.72
2019-04-28T07:50:49.383Z,1012.71
2019-04-28T07:51:49.374Z,1012.76
2019-04-28T07:52:49.363Z,1012.75
2019-04-28T07:53:49.363Z,1012.77
2019-04-28T07:54:49.364Z,1012.79
2019-04-28T07:55:49.344Z,1012.80
2019-04-28T07:56:49.337Z,1012.85
2019-04-28T07:57:49.333Z,1012.85
2019-04-28T07:58:49.332Z,1012.87
2019-04-28T07:59:49.376Z,1012.91
2019-04-28T08:00:49.317Z,1012.94
2019-04-28T08:01:49.318Z,1012.92
2019-04-28T08:02:49.304Z,1012.93
2019-04-28T08:03:50.088Z,1012.99
2019-04-28T08:04:49.287Z,1013.02
2019-04-28T08:05:49.281Z,1013.02
2019-04-28T08:06:49.282Z,1013.01
2019-04-28T08:07:49.279Z,1013.05
2019-04-28T08:08:49.266Z,1013.10
2019-04-28T08:09:49.255Z,1013.15
2019-04-28T08:10:49.249Z,1013.15
2019-04-28T08:11:49.246Z,1013.13
2019-04-28T08:12:49.321Z,1013.17
2019-04-28T08:13:49.234Z,1013.14
2019-04-28T08:14:49.232Z,1013.18
2019-04-28T08:15:49.216Z,1013.19
2019-04-28T08:16:49.218Z,1013.16
2019-04-28T08:17:49.207Z,1013.16
2019-04-28T08:18:49.198Z,1013.20
2019-04-28T08:19:49.196Z,1013.20
2019-04-28T08:20:49.198Z,1013.26
2019-04-28T08:21:49.194Z,1013.27
2019-04-28T08:22:49.175Z,1013.30
2019-04-28T08:23:49.170Z,1013.28
2019-04-28T08:24:49.160Z,1013.33
2019-04-28T08:25:49.160Z,1013.32
2019-04-28T08:26:49.152Z,1013.34
2019-04-28T08:27:49.149Z,1013.34
2019-04-28T08:28:49.132Z,1013.34
2019-04-28T08:29:58.385Z,1013.38
2019-04-28T08:30:49.178Z,1013.43
2019-04-28T08:31:49.123Z,1013.41
2019-04-28T08:32:49.128Z,1013.43
2019-04-28T08:34:01.269Z,1013.43
2019-04-28T08:34:49.119Z,1013.44
2019-04-28T08:35:49.107Z,1013.43
2019-04-28T08:36:49.090Z,1013.46
2019-04-28T08:37:49.082Z,1013.51
2019-04-28T08:38:49.072Z,1013.47
2019-04-28T08:39:49.084Z,1013.51
2019-04-28T08:40:49.081Z,1013.51
2019-04-28T08:41:49.061Z,1013.53
2019-04-28T08:42:49.056Z,1013.56
2019-04-28T08:43:49.334Z,1013.55
2019-04-28T08:44:49.091Z,1013.56
2019-04-28T08:45:49.046Z,1013.58
2019-04-28T08:46:49.029Z,1013.60
2019-04-28T08:47:49.057Z,1013.64
2019-04-28T08:48:49.111Z,1013.61
2019-04-28T08:49:49.007Z,1013.64
2019-04-28T08:50:49.008Z,1013.62
2019-04-28T08:51:49.002Z,1013.66
2019-04-28T08:52:49.027Z,1013.69
2019-04-28T08:53:48.994Z,1013.71
2019-04-28T08:54:48.991Z,1013.74
2019-04-28T08:55:48.970Z,1013.79
2019-04-28T08:56:48.968Z,1013.77
2019-04-28T08:57:48.966Z,1013.74
2019-04-28T08:58:48.959Z,1013.77
2019-04-28T08:59:48.953Z,1013.77
2019-04-28T09:00:48.960Z,1013.78
2019-04-28T09:01:48.940Z,1013.79
2019-04-28T09:02:49.976Z,1013.80
2019-04-28T09:03:49.045Z,1013.80
2019-04-28T09:04:48.928Z,1013.81
2019-04-28T09:05:48.919Z,1013.83
2019-04-28T09:06:48.912Z,1013.83
2019-04-28T09:07:48.907Z,1013.83
2019-04-28T09:08:48.898Z,1013.87
2019-04-28T09:09:48.911Z,1013.87
2019-04-28T09:10:48.883Z,1013.86
2019-04-28T09:11:48.885Z,1013.89
2019-04-28T09:12:48.897Z,1013.89
2019-04-28T09:13:48.873Z,1013.92
2019-04-28T09:14:48.861Z,1013.91
2019-04-28T09:15:48.861Z,1013.93
2019-04-28T09:16:48.866Z,1013.97
2019-04-28T09:17:48.852Z,1013.96
2019-04-28T09:18:48.850Z,1013.93
2019-04-28T09:19:48.837Z,1013.95
2019-04-28T09:20:48.852Z,1013.91
2019-04-28T09:21:48.825Z,1013.96
2019-04-28T09:22:48.821Z,1013.94
2019-04-28T09:23:48.818Z,1013.98
2019-04-28T09:24:48.815Z,1013.95
2019-04-28T09:25:48.824Z,1013.90
2019-04-28T09:26:48.803Z,1013.91
2019-04-28T09:27:48.795Z,1013.92
2019-04-28T09:28:48.792Z,1014.00
2019-04-28T09:29:48.782Z,1014.03
2019-04-28T09:30:48.775Z,1014.00
2019-04-28T09:31:48.769Z,1013.99
2019-04-28T09:32:48.839Z,1013.98
2019-04-28T09:33:48.753Z,1014.06
2019-04-28T09:34:48.749Z,1014.05
2019-04-28T09:35:48.755Z,1014.00
2019-04-28T09:36:48.768Z,1013.99
2019-04-28T09:37:48.737Z,1013.99
2019-04-28T09:38:48.733Z,1014.02
2019-04-28T09:39:48.723Z,1014.05
2019-04-28T09:40:48.725Z,1014.05
2019-04-28T09:41:48.744Z,1014.01
2019-04-28T09:42:48.711Z,1013.99
2019-04-28T09:43:48.718Z,1014.03
2019-04-28T09:44:48.707Z,1014.01
2019-04-28T09:45:48.686Z,1014.11
2019-04-28T09:46:48.686Z,1014.17
2019-04-28T09:47:48.690Z,1014.10
2019-04-28T09:48:48.676Z,1014.14
2019-04-28T09:49:48.670Z,1014.12
2019-04-28T09:50:48.663Z,1014.12
2019-04-28T09:51:48.656Z,1014.11
2019-04-28T09:52:48.949Z,1014.18
2019-04-28T09:53:48.661Z,1014.16
2019-04-28T09:54:48.637Z,1014.24
2019-04-28T09:55:48.643Z,1014.21
2019-04-28T09:56:56.431Z,1014.21
2019-04-28T09:57:48.629Z,1014.21
2019-04-28T09:58:48.629Z,1014.21
2019-04-28T09:59:48.646Z,1014.24
2019-04-28T10:00:48.614Z,1014.24
2019-04-28T10:01:48.618Z,1014.22
2019-04-28T10:02:48.637Z,1014.23
2019-04-28T10:03:48.594Z,1014.21
2019-04-28T10:04:48.582Z,1014.25
2019-04-28T10:05:48.578Z,1014.19
2019-04-28T10:06:48.583Z,1014.21
2019-04-28T10:07:48.571Z,1014.21
2019-04-28T10:08:48.568Z,1014.26
2019-04-28T10:09:48.580Z,1014.28
2019-04-28T10:10:48.554Z,1014.28
2019-04-28T10:11:48.547Z,1014.20
2019-04-28T10:12:48.541Z,1014.20
2019-04-28T10:13:48.534Z,1014.23
2019-04-28T10:14:48.528Z,1014.25
2019-04-28T10:15:48.530Z,1014.25
2019-04-28T10:16:48.530Z,1014.23
2019-04-28T10:17:48.514Z,1014.27
2019-04-28T10:18:48.709Z,1014.27
2019-04-28T10:19:48.514Z,1014.27
2019-04-28T10:20:48.505Z,1014.28
2019-04-28T10:21:48.499Z,1014.27
2019-04-28T10:22:48.491Z,1014.33
2019-04-28T10:23:48.489Z,1014.30
2019-04-28T10:24:48.478Z,1014.34
2019-04-28T10:25:48.473Z,1014.35
2019-04-28T10:26:48.466Z,1014.31
2019-04-28T10:27:48.584Z,1014.37
2019-04-28T10:28:48.464Z,1014.36
2019-04-28T10:29:48.455Z,1014.36
2019-04-28T10:30:48.451Z,1014.30
2019-04-28T10:31:48.438Z,1014.35
2019-04-28T10:32:48.454Z,1014.32
2019-04-28T10:33:48.448Z,1014.31
2019-04-28T10:34:54.789Z,1014.36
2019-04-28T10:35:48.424Z,1014.25
2019-04-28T10:36:48.463Z,1014.27
2019-04-28T10:37:48.533Z,1014.25
2019-04-28T10:38:48.406Z,1014.28
2019-04-28T10:39:48.403Z,1014.23
2019-04-28T10:40:48.471Z,1014.26
2019-04-28T10:41:48.400Z,1014.25
2019-04-28T10:42:48.399Z,1014.19
2019-04-28T10:43:49.058Z,1014.26
2019-04-28T10:44:48.394Z,1014.26
2019-04-28T10:45:48.388Z,1014.25
2019-04-28T10:46:48.367Z,1014.17
2019-04-28T10:47:48.365Z,1014.23
2019-04-28T10:48:48.349Z,1014.25
2019-04-28T10:49:48.345Z,1014.30
2019-04-28T10:50:48.377Z,1014.25
2019-04-28T10:51:58.765Z,1014.25
2019-04-28T10:52:48.347Z,1014.30
2019-04-28T10:53:48.326Z,1014.25
2019-04-28T10:54:48.315Z,1014.27
2019-04-28T10:55:48.307Z,1014.27
2019-04-28T10:56:48.331Z,1014.24
2019-04-28T10:57:48.309Z,1014.30
2019-04-28T10:58:48.284Z,1014.32
2019-04-28T10:59:48.291Z,1014.23
2019-04-28T11:00:48.277Z,1014.30
2019-04-28T11:01:48.276Z,1014.31
2019-04-28T11:02:48.352Z,1014.29
2019-04-28T11:03:48.273Z,1014.27
2019-04-28T11:04:48.561Z,1014.28
2019-04-28T11:05:48.263Z,1014.31
2019-04-28T11:06:48.506Z,1014.34
2019-04-28T11:07:48.813Z,1014.34
2019-04-28T11:08:48.220Z,1014.36
2019-04-28T11:09:48.220Z,1014.37
2019-04-28T11:10:48.232Z,1014.40
2019-04-28T11:11:48.211Z,1014.38
2019-04-28T11:12:48.199Z,1014.40
2019-04-28T11:13:48.422Z,1014.43
2019-04-28T11:14:48.201Z,1014.46
2019-04-28T11:15:49.690Z,1014.45
2019-04-28T11:16:48.565Z,1014.46
2019-04-28T11:17:48.214Z,1014.50
2019-04-28T11:18:48.150Z,1014.45
2019-04-28T11:19:48.150Z,1014.44
2019-04-28T11:20:48.153Z,1014.45
2019-04-28T11:21:48.131Z,1014.43
2019-04-28T11:22:48.133Z,1014.49
2019-04-28T11:23:48.173Z,1014.53
2019-04-28T11:24:48.157Z,1014.46
2019-04-28T11:25:48.115Z,1014.48
2019-04-28T11:26:48.114Z,1014.49
2019-04-28T11:27:48.092Z,1014.51
2019-04-28T11:28:48.086Z,1014.49
2019-04-28T11:29:48.082Z,1014.55
2019-04-28T11:30:48.068Z,1014.53
2019-04-28T11:31:48.065Z,1014.53
2019-04-28T11:32:48.063Z,1014.65
2019-04-28T11:33:48.056Z,1014.58
2019-04-28T11:34:48.046Z,1014.61
2019-04-28T11:35:49.193Z,1014.59
2019-04-28T11:36:48.023Z,1014.65
2019-04-28T11:37:48.021Z,1014.61
2019-04-28T11:38:48.017Z,1014.61
2019-04-28T11:39:48.002Z,1014.60
2019-04-28T11:40:47.999Z,1014.61
2019-04-28T11:41:47.989Z,1014.61
2019-04-28T11:42:47.980Z,1014.60
2019-04-28T11:43:47.984Z,1014.60
2019-04-28T11:44:47.971Z,1014.63
2019-04-28T11:45:47.969Z,1014.62
2019-04-28T11:46:47.959Z,1014.64
2019-04-28T11:47:47.943Z,1014.64
2019-04-28T11:48:47.934Z,1014.66
2019-04-28T11:49:47.947Z,1014.65
2019-04-28T11:50:47.935Z,1014.64
2019-04-28T11:51:47.925Z,1014.63
2019-04-28T11:52:47.921Z,1014.68
2019-04-28T11:53:47.900Z,1014.68
2019-04-28T11:54:47.894Z,1014.70
2019-04-28T11:55:47.895Z,1014.63
2019-04-28T11:56:47.898Z,1014.66
2019-04-28T11:57:47.883Z,1014.64
2019-04-28T11:58:47.868Z,1014.62
2019-04-28T11:59:47.861Z,1014.59
2019-04-28T12:00:47.848Z,1014.64
2019-04-28T12:01:47.841Z,1014.60
2019-04-28T12:02:47.835Z,1014.62
2019-04-28T12:03:47.838Z,1014.60
2019-04-28T12:04:47.826Z,1014.64
2019-04-28T12:05:47.851Z,1014.64